RYR90QD EDFH-EGSS
Flight info
| Callsign | RYR90QD |
|---|---|
| Flight time | N/A |
| Altitude | 34000 |
| Route | RUDOT2S RUDOT Y180 BITBU Y181 DEMUL M624 BUB DCT KOZUF DCT IMPOH DCT SASKI L608 SUMUM Y6 TOSVA |
| Aircraft | B738/M-SDE2E3FGHIRWXY/LB1 |
Departure
| Time | 2026-05-05 15:22 |
|---|---|
| Airport | Frankfurt-Hahn Airport (EDFH) |
Arrival
| Time | N/A |
|---|---|
| Airport | London Stansted Airport (EGSS) |
| Time | Latitude | Longitude | Altitude | Speed | Heading |
|---|---|---|---|---|---|
| 2026-05-05 15:02 | 49.94831 | 7.27055 | 1613 ft | 0 kts | 32° |
| 2026-05-05 15:14 | 49.94819 | 7.27044 | 1619 ft | 4 kts | 32° |
| 2026-05-05 15:14 | 49.94801 | 7.27024 | 1621 ft | 4 kts | 55° |
| 2026-05-05 15:15 | 49.94797 | 7.26994 | 1621 ft | 4 kts | 124° |
| 2026-05-05 15:15 | 49.94814 | 7.26962 | 1617 ft | 4 kts | 126° |
| 2026-05-05 15:15 | 49.94828 | 7.26929 | 1617 ft | 4 kts | 122° |
| 2026-05-05 15:15 | 49.94841 | 7.26896 | 1615 ft | 4 kts | 122° |
| 2026-05-05 15:16 | 49.94849 | 7.26862 | 1616 ft | 4 kts | 72° |
| 2026-05-05 15:16 | 49.94834 | 7.26832 | 1619 ft | 4 kts | 33° |
| 2026-05-05 15:16 | 49.94813 | 7.26811 | 1619 ft | 4 kts | 33° |
| 2026-05-05 15:16 | 49.94809 | 7.26807 | 1622 ft | 0 kts | 33° |
| 2026-05-05 15:18 | 49.94810 | 7.26808 | 1622 ft | 1 kts | 33° |
| 2026-05-05 15:19 | 49.94832 | 7.26830 | 1619 ft | 8 kts | 33° |
| 2026-05-05 15:19 | 49.94908 | 7.26837 | 1617 ft | 13 kts | 322° |
| 2026-05-05 15:19 | 49.94937 | 7.26782 | 1624 ft | 0 kts | 307° |
| 2026-05-05 15:20 | 49.94949 | 7.26757 | 1616 ft | 7 kts | 307° |
| 2026-05-05 15:20 | 49.95009 | 7.26728 | 1614 ft | 14 kts | 359° |
| 2026-05-05 15:20 | 49.95117 | 7.26690 | 1615 ft | 17 kts | 315° |
| 2026-05-05 15:21 | 49.95099 | 7.26612 | 1612 ft | 8 kts | 212° |
| 2026-05-05 15:21 | 49.94998 | 7.26514 | 1615 ft | 45 kts | 212° |
| 2026-05-05 15:21 | 49.94504 | 7.26031 | 1622 ft | 120 kts | 212° |
| 2026-05-05 15:21 | 49.93617 | 7.25180 | 1768 ft | 171 kts | 211° |
| 2026-05-05 15:22 | 49.92586 | 7.24165 | 2709 ft | 173 kts | 215° |
| 2026-05-05 15:22 | 49.91584 | 7.23127 | 3662 ft | 182 kts | 215° |
| 2026-05-05 15:22 | 49.90444 | 7.21935 | 4006 ft | 210 kts | 214° |
| 2026-05-05 15:22 | 49.89164 | 7.20612 | 4346 ft | 231 kts | 214° |
| 2026-05-05 15:23 | 49.87838 | 7.19187 | 4938 ft | 235 kts | 215° |
| 2026-05-05 15:23 | 49.86506 | 7.17761 | 4867 ft | 229 kts | 213° |
| 2026-05-05 15:23 | 49.85389 | 7.16066 | 4935 ft | 228 kts | 242° |
| 2026-05-05 15:23 | 49.85053 | 7.13635 | 5013 ft | 241 kts | 272° |
| 2026-05-05 15:24 | 49.85565 | 7.11117 | 5557 ft | 251 kts | 298° |
| 2026-05-05 15:24 | 49.86689 | 7.09032 | 6483 ft | 254 kts | 314° |
| 2026-05-05 15:24 | 49.88216 | 7.07579 | 7208 ft | 269 kts | 341° |
| 2026-05-05 15:24 | 49.90095 | 7.06877 | 7837 ft | 284 kts | 346° |
| 2026-05-05 15:25 | 49.92045 | 7.06183 | 8699 ft | 291 kts | 346° |
| 2026-05-05 15:25 | 49.94024 | 7.05443 | 9632 ft | 295 kts | 346° |
| 2026-05-05 15:25 | 49.95999 | 7.04597 | 10432 ft | 300 kts | 336° |
| 2026-05-05 15:25 | 49.97679 | 7.02707 | 11205 ft | 301 kts | 307° |
| 2026-05-05 15:26 | 49.98622 | 6.99832 | 12031 ft | 301 kts | 283° |
| 2026-05-05 15:26 | 49.98969 | 6.96598 | 12743 ft | 310 kts | 276° |
| 2026-05-05 15:26 | 49.99258 | 6.93111 | 12972 ft | 338 kts | 275° |
| 2026-05-05 15:26 | 49.99552 | 6.89403 | 13496 ft | 352 kts | 275° |
| 2026-05-05 15:27 | 49.99852 | 6.85600 | 14224 ft | 356 kts | 275° |
| 2026-05-05 15:27 | 50.00155 | 6.81762 | 15076 ft | 358 kts | 275° |
| 2026-05-05 15:27 | 50.00456 | 6.77952 | 15578 ft | 359 kts | 275° |
| 2026-05-05 15:27 | 50.00762 | 6.74069 | 15810 ft | 364 kts | 275° |
| 2026-05-05 15:28 | 50.01072 | 6.70142 | 15918 ft | 368 kts | 275° |
| 2026-05-05 15:28 | 50.01386 | 6.66158 | 16631 ft | 371 kts | 275° |
| 2026-05-05 15:28 | 50.01699 | 6.62182 | 17564 ft | 371 kts | 275° |
| 2026-05-05 15:28 | 50.02012 | 6.58186 | 18322 ft | 375 kts | 275° |
| 2026-05-05 15:29 | 50.02328 | 6.54123 | 18931 ft | 380 kts | 275° |
| 2026-05-05 15:29 | 50.02645 | 6.50024 | 19573 ft | 384 kts | 275° |
| 2026-05-05 15:29 | 50.02962 | 6.45918 | 20214 ft | 388 kts | 275° |
| 2026-05-05 15:29 | 50.03284 | 6.41730 | 20864 ft | 393 kts | 275° |
| 2026-05-05 15:30 | 50.03613 | 6.37437 | 21578 ft | 394 kts | 275° |
| 2026-05-05 15:30 | 50.03930 | 6.33267 | 22370 ft | 394 kts | 275° |
| 2026-05-05 15:30 | 50.04254 | 6.28992 | 22976 ft | 399 kts | 274° |
| 2026-05-05 15:30 | 50.04579 | 6.24680 | 23506 ft | 404 kts | 274° |
| 2026-05-05 15:31 | 50.04906 | 6.20315 | 23998 ft | 408 kts | 274° |
| 2026-05-05 15:31 | 50.05234 | 6.15909 | 24489 ft | 411 kts | 274° |
| 2026-05-05 15:31 | 50.05564 | 6.11461 | 24975 ft | 414 kts | 274° |
| 2026-05-05 15:31 | 50.05894 | 6.06990 | 25441 ft | 418 kts | 274° |
| 2026-05-05 15:32 | 50.06221 | 6.02533 | 25936 ft | 422 kts | 274° |
| 2026-05-05 15:32 | 50.06554 | 5.97980 | 26432 ft | 425 kts | 274° |
| 2026-05-05 15:32 | 50.06889 | 5.93383 | 26959 ft | 429 kts | 274° |
| 2026-05-05 15:32 | 50.07224 | 5.88739 | 27390 ft | 435 kts | 274° |
| 2026-05-05 15:33 | 50.07756 | 5.84064 | 27833 ft | 443 kts | 285° |
| 2026-05-05 15:33 | 50.08995 | 5.79633 | 28280 ft | 450 kts | 299° |
| 2026-05-05 15:33 | 50.10886 | 5.75721 | 28741 ft | 455 kts | 313° |
| 2026-05-05 15:33 | 50.13155 | 5.72279 | 29258 ft | 456 kts | 315° |
| 2026-05-05 15:34 | 50.14685 | 5.70030 | 29647 ft | 456 kts | 316° |
| 2026-05-05 15:34 | 50.16999 | 5.66649 | 30212 ft | 455 kts | 316° |
| 2026-05-05 15:34 | 50.19301 | 5.63264 | 30697 ft | 454 kts | 315° |
| 2026-05-05 15:34 | 50.22328 | 5.58757 | 31329 ft | 454 kts | 315° |
| 2026-05-05 15:35 | 50.24601 | 5.55337 | 31861 ft | 454 kts | 314° |
| 2026-05-05 15:35 | 50.26134 | 5.53017 | 32208 ft | 454 kts | 314° |
| 2026-05-05 15:35 | 50.29130 | 5.48465 | 33010 ft | 449 kts | 314° |
| 2026-05-05 15:35 | 50.30603 | 5.46223 | 33454 ft | 445 kts | 313° |
| 2026-05-05 15:36 | 50.32825 | 5.42836 | 33856 ft | 446 kts | 313° |
| 2026-05-05 15:36 | 50.37313 | 5.35974 | 33835 ft | 450 kts | 313° |
| 2026-05-05 15:37 | 50.41754 | 5.29177 | 33847 ft | 443 kts | 313° |
| 2026-05-05 15:37 | 50.46167 | 5.22400 | 33857 ft | 445 kts | 313° |
| 2026-05-05 15:38 | 50.50605 | 5.15566 | 33871 ft | 447 kts | 313° |
| 2026-05-05 15:38 | 50.55057 | 5.08693 | 33874 ft | 450 kts | 313° |
| 2026-05-05 15:39 | 50.59524 | 5.01776 | 33866 ft | 450 kts | 313° |
| 2026-05-05 15:39 | 50.63942 | 4.94918 | 33859 ft | 448 kts | 313° |
| 2026-05-05 15:40 | 50.68367 | 4.88036 | 33862 ft | 446 kts | 313° |